Rose Hill, Texas
Current Conditions -  °F | °C
As of 6:53 PM on Friday 19 Dec 2014 (Local Time) from KDWH Reporting Station
Overcast Overcast  
Wind Chill: 55°   Ceiling: 900
Heat Index: 55°   Visibility: 10mi
Dew Point: 52°   Wind: 8mph
Humidity: 89%   Direction: 10°N
Pressure: 30.08"   Gusts: NA
Location:  30.0721°N, 95.6453°W
Report Text: KDWH 200053Z 01007KT 10SM OVC009 13/11 A3008 RMK AO2 CIG 007V012 SLP186 T01280111
Loading
Personal Weather Stations






























Interactive Weather Map New forecast layout! Learn more

10-Day Weather Forecast

Advertisements
Track Severe Weather on mobile